createdAt,value
2024-05-09T00:01:52.325Z,3.15
2024-05-09T00:04:19.980Z,3.25
2024-05-09T00:06:46.653Z,3.42
2024-05-09T00:10:05.616Z,4.18
2024-05-09T00:12:35.780Z,3.42
2024-05-09T00:15:02.418Z,3.17
2024-05-09T00:17:29.197Z,3.20
2024-05-09T00:19:55.962Z,2.88
2024-05-09T00:22:22.596Z,3.28
2024-05-09T00:24:49.297Z,3.00
2024-05-09T00:27:16.190Z,3.45
2024-05-09T00:29:42.845Z,3.03
2024-05-09T00:32:09.589Z,3.13
2024-05-09T00:34:36.356Z,3.28
2024-05-09T00:37:03.134Z,3.08
2024-05-09T00:39:29.785Z,3.17
2024-05-09T00:41:56.421Z,3.20
2024-05-09T00:44:23.188Z,3.00
2024-05-09T00:50:36.376Z,3.67
2024-05-09T00:53:11.019Z,3.60
2024-05-09T00:55:39.369Z,3.70
2024-05-09T00:58:10.615Z,3.38
2024-05-09T01:00:40.292Z,3.75
2024-05-09T01:03:10.392Z,2.38
2024-05-09T01:05:39.597Z,3.67
2024-05-09T01:11:53.915Z,2.95
2024-05-09T01:14:20.668Z,4.07
2024-05-09T01:16:47.424Z,3.35
2024-05-09T01:19:35.647Z,3.38
2024-05-09T01:22:04.236Z,3.55
2024-05-09T01:24:30.935Z,3.85
2024-05-09T01:26:57.570Z,3.30
2024-05-09T01:29:24.406Z,3.08
2024-05-09T01:31:52.400Z,3.35
2024-05-09T01:34:19.254Z,3.47
2024-05-09T01:36:45.993Z,3.17
2024-05-09T01:39:12.613Z,3.95
2024-05-09T01:41:39.298Z,3.63
2024-05-09T01:44:06.057Z,3.90
2024-05-09T01:46:32.733Z,3.13
2024-05-09T01:52:47.164Z,3.75
2024-05-09T01:55:14.188Z,3.88
2024-05-09T01:57:40.808Z,3.25
2024-05-09T02:00:10.227Z,4.03
2024-05-09T02:02:37.391Z,3.47
2024-05-09T02:05:04.478Z,4.15
2024-05-09T02:07:31.185Z,3.75
2024-05-09T02:09:57.846Z,3.15
2024-05-09T02:16:14.258Z,4.30
2024-05-09T02:18:40.966Z,4.07
2024-05-09T02:25:08.055Z,3.42
2024-05-09T02:27:34.666Z,4.22
2024-05-09T02:30:01.780Z,4.50
2024-05-09T02:32:28.676Z,3.75
2024-05-09T02:34:55.520Z,4.32
2024-05-09T02:37:22.175Z,3.83
2024-05-09T02:39:48.808Z,3.70
2024-05-09T02:42:15.458Z,4.15
2024-05-09T02:44:42.097Z,3.95
2024-05-09T02:47:08.977Z,4.55
2024-05-09T02:49:35.801Z,4.15
2024-05-09T02:52:02.488Z,3.85
2024-05-09T02:54:29.105Z,3.80
2024-05-09T02:56:55.716Z,4.15
2024-05-09T02:59:22.616Z,3.92
2024-05-09T03:01:49.517Z,4.55
2024-05-09T03:04:16.342Z,4.28
2024-05-09T03:06:43.550Z,3.90
2024-05-09T03:09:10.348Z,4.57
2024-05-09T03:11:37.359Z,3.85
2024-05-09T03:14:04.132Z,4.15
2024-05-09T03:17:24.371Z,3.97
2024-05-09T03:19:51.377Z,4.30
2024-05-09T03:22:18.067Z,4.07
2024-05-09T03:24:44.839Z,4.30
2024-05-09T03:27:11.437Z,4.20
2024-05-09T03:29:38.095Z,4.30
2024-05-09T03:32:05.432Z,4.18
2024-05-09T03:35:22.233Z,3.80
2024-05-09T03:37:49.134Z,4.18
2024-05-09T03:40:20.898Z,3.58
2024-05-09T03:42:50.665Z,3.50
2024-05-09T03:45:17.303Z,3.55
2024-05-09T03:47:44.165Z,4.28
2024-05-09T03:50:18.273Z,3.25
2024-05-09T03:52:52.500Z,4.15
2024-05-09T03:55:19.162Z,3.55
2024-05-09T03:57:45.811Z,4.22
2024-05-09T04:00:18.190Z,3.78
2024-05-09T04:02:52.932Z,3.72
2024-05-09T04:05:19.676Z,4.22
2024-05-09T04:11:34.180Z,4.65
2024-05-09T04:14:01.031Z,4.38
2024-05-09T04:16:29.772Z,4.68
2024-05-09T04:18:56.502Z,4.20
2024-05-09T04:21:23.203Z,4.00
2024-05-09T04:23:49.849Z,4.45
2024-05-09T04:26:16.552Z,4.10
2024-05-09T04:28:43.192Z,4.40
2024-05-09T04:31:09.845Z,3.95
2024-05-09T04:33:36.660Z,4.65
2024-05-09T04:36:03.677Z,3.85
2024-05-09T04:38:30.414Z,4.80
2024-05-09T04:40:57.288Z,4.30
2024-05-09T04:43:24.056Z,4.40
2024-05-09T04:45:50.822Z,4.47
2024-05-09T04:48:17.640Z,4.57
2024-05-09T04:50:44.611Z,4.50
2024-05-09T04:53:16.205Z,6.03
2024-05-09T04:55:43.330Z,5.47
2024-05-09T04:58:10.559Z,4.53
2024-05-09T05:00:39.898Z,4.45
2024-05-09T05:03:10.762Z,5.07
2024-05-09T05:05:43.637Z,4.90
2024-05-09T05:08:16.272Z,5.47
2024-05-09T05:10:44.524Z,4.50
2024-05-09T05:13:23.810Z,4.78
2024-05-09T05:15:55.803Z,4.90
2024-05-09T05:18:24.189Z,4.35
2024-05-09T05:20:51.572Z,4.53
2024-05-09T05:23:20.247Z,4.35
2024-05-09T05:25:48.814Z,4.57
2024-05-09T05:28:16.484Z,4.53
2024-05-09T05:30:43.227Z,4.38
2024-05-09T05:33:14.932Z,5.18
2024-05-09T05:35:42.304Z,5.03
2024-05-09T05:38:10.071Z,4.28
2024-05-09T05:40:38.663Z,4.65
2024-05-09T05:46:53.970Z,4.43
2024-05-09T05:49:20.826Z,4.50
2024-05-09T05:51:47.599Z,4.57
2024-05-09T05:54:14.214Z,4.50
2024-05-09T05:56:40.976Z,4.80
2024-05-09T05:59:07.667Z,4.95
2024-05-09T06:01:34.462Z,4.93
2024-05-09T06:07:42.312Z,6.32
2024-05-09T06:10:17.257Z,6.18
2024-05-09T06:12:48.366Z,6.22
2024-05-09T06:15:15.139Z,6.35
2024-05-09T06:17:41.914Z,6.35
2024-05-09T06:20:16.634Z,6.95
2024-05-09T06:22:50.082Z,7.25
2024-05-09T06:25:16.904Z,5.97
2024-05-09T06:27:43.682Z,6.43
2024-05-09T06:30:21.087Z,7.60
2024-05-09T06:32:52.861Z,6.13
2024-05-09T06:35:19.648Z,5.93
2024-05-09T06:37:46.404Z,7.05
2024-05-09T06:40:17.384Z,6.40
2024-05-09T06:42:44.189Z,6.03
2024-05-09T06:45:10.885Z,6.05
2024-05-09T06:47:37.594Z,7.10
2024-05-09T06:50:08.338Z,7.00
2024-05-09T06:52:39.834Z,5.47
2024-05-09T06:55:06.593Z,5.97
2024-05-09T06:57:33.194Z,6.55
2024-05-09T07:00:00.998Z,6.03
2024-05-09T07:02:28.136Z,7.97
2024-05-09T07:04:54.926Z,6.53
2024-05-09T07:07:21.957Z,7.65
2024-05-09T07:09:48.596Z,6.57
2024-05-09T07:12:15.414Z,8.30
2024-05-09T07:14:42.171Z,6.40
2024-05-09T07:17:09.251Z,5.97
2024-05-09T07:19:36.118Z,6.05
2024-05-09T07:25:49.909Z,5.40
2024-05-09T07:28:18.318Z,5.60
2024-05-09T07:30:45.596Z,7.35
2024-05-09T07:33:23.397Z,6.97
2024-05-09T07:35:51.279Z,7.72
2024-05-09T07:38:17.996Z,7.20
2024-05-09T07:40:44.838Z,7.78
2024-05-09T07:43:12.981Z,5.88
2024-05-09T07:45:49.870Z,5.65
2024-05-09T07:52:37.611Z,6.93
2024-05-09T07:53:45.928Z,6.05
2024-05-09T07:56:16.509Z,7.82
2024-05-09T07:58:44.142Z,5.65
2024-05-09T08:01:11.208Z,5.85
2024-05-09T08:03:48.163Z,6.45
2024-05-09T08:06:16.245Z,5.80
2024-05-09T08:08:50.986Z,6.82
2024-05-09T08:11:17.733Z,7.00
2024-05-09T08:13:44.478Z,6.57
2024-05-09T08:16:11.276Z,5.72
2024-05-09T08:18:38.185Z,5.93
2024-05-09T08:21:05.307Z,5.60
2024-05-09T08:23:32.152Z,6.30
2024-05-09T08:25:58.804Z,5.97
2024-05-09T08:28:25.470Z,5.90
2024-05-09T08:30:52.347Z,6.50
2024-05-09T08:33:19.282Z,5.80
2024-05-09T08:35:46.050Z,6.50
2024-05-09T08:38:12.732Z,6.55
2024-05-09T08:40:39.518Z,5.10
2024-05-09T08:43:11.808Z,5.72
2024-05-09T08:45:44.569Z,6.38
2024-05-09T08:48:15.045Z,5.88
2024-05-09T08:50:43.494Z,6.05
2024-05-09T08:53:10.565Z,6.57
2024-05-09T08:55:41.523Z,4.90
2024-05-09T08:58:14.356Z,5.80
2024-05-09T09:04:31.193Z,6.60
2024-05-09T09:06:59.775Z,5.97
2024-05-09T09:09:28.024Z,6.40
2024-05-09T09:11:54.811Z,6.13
2024-05-09T09:15:06.494Z,6.25
2024-05-09T09:17:33.222Z,6.75
2024-05-09T09:20:00.482Z,6.40
2024-05-09T09:22:27.241Z,5.20
2024-05-09T09:24:53.941Z,6.00
2024-05-09T09:27:22.056Z,6.53
2024-05-09T09:29:49.102Z,6.18
2024-05-09T09:33:31.163Z,6.68
2024-05-09T09:35:58.174Z,5.78
2024-05-09T09:38:30.679Z,5.63
2024-05-09T09:40:58.158Z,6.07
2024-05-09T09:43:26.489Z,6.15
2024-05-09T09:45:55.323Z,5.88
2024-05-09T09:48:23.674Z,7.35
2024-05-09T09:50:55.412Z,6.70
2024-05-09T09:53:23.488Z,6.53
2024-05-09T09:55:52.139Z,6.57
2024-05-09T09:58:19.360Z,6.97
2024-05-09T10:00:46.577Z,7.13
2024-05-09T10:03:13.494Z,6.60
2024-05-09T10:05:43.981Z,5.47
2024-05-09T10:08:13.815Z,7.63
2024-05-09T10:10:46.566Z,7.35
2024-05-09T10:13:13.441Z,5.85
2024-05-09T10:19:28.116Z,5.88
2024-05-09T10:22:03.006Z,7.03
2024-05-09T10:24:52.947Z,7.55
2024-05-09T10:27:30.273Z,7.18
2024-05-09T10:29:58.592Z,7.18
2024-05-09T10:36:41.979Z,6.28
2024-05-09T10:39:08.779Z,5.78
2024-05-09T10:41:38.150Z,6.75
2024-05-09T10:44:12.072Z,6.57
2024-05-09T10:46:38.735Z,6.10
2024-05-09T10:49:07.858Z,6.00
2024-05-09T10:51:35.376Z,6.82
2024-05-09T10:54:20.660Z,7.05
2024-05-09T10:56:56.042Z,6.45
2024-05-09T10:59:22.669Z,8.75
2024-05-09T11:01:50.684Z,6.70
2024-05-09T11:08:05.462Z,6.72
2024-05-09T11:10:34.336Z,7.47
2024-05-09T11:13:01.535Z,7.40
2024-05-09T11:15:48.476Z,7.65
2024-05-09T11:18:26.447Z,7.80
2024-05-09T11:20:56.320Z,6.47
2024-05-09T11:23:27.275Z,6.80
2024-05-09T11:25:55.388Z,7.57
2024-05-09T11:28:22.985Z,7.18
2024-05-09T11:30:52.739Z,6.63
2024-05-09T11:33:20.448Z,6.28
2024-05-09T11:35:47.483Z,5.70
2024-05-09T11:38:14.351Z,6.55
2024-05-09T11:40:41.105Z,7.43
2024-05-09T11:43:08.041Z,8.07
2024-05-09T11:45:34.799Z,8.52
2024-05-09T11:48:01.709Z,6.82
2024-05-09T11:50:33.099Z,8.32
2024-05-09T11:53:02.393Z,6.75
2024-05-09T11:55:29.346Z,6.22
2024-05-09T11:57:56.935Z,6.82
2024-05-09T12:00:33.003Z,6.20
2024-05-09T12:04:00.134Z,7.47
2024-05-09T12:06:27.296Z,7.13
2024-05-09T12:08:54.094Z,7.57
2024-05-09T12:11:20.840Z,6.05
2024-05-09T12:13:47.620Z,6.15
2024-05-09T12:16:14.495Z,6.50
2024-05-09T12:18:41.342Z,6.25
2024-05-09T12:21:08.094Z,7.22
2024-05-09T12:23:34.770Z,8.18
2024-05-09T12:26:58.214Z,8.40
2024-05-09T12:29:25.198Z,8.10
2024-05-09T12:31:53.206Z,8.52
2024-05-09T12:34:21.604Z,7.18
2024-05-09T12:36:51.301Z,8.10
2024-05-09T12:39:19.366Z,8.35
2024-05-09T12:41:47.621Z,8.63
2024-05-09T12:44:15.657Z,8.15
2024-05-09T12:46:42.401Z,8.13
2024-05-09T12:49:09.594Z,7.47
2024-05-09T12:51:36.407Z,7.18
2024-05-09T12:54:03.163Z,7.80
2024-05-09T12:56:29.815Z,7.53
2024-05-09T12:58:56.553Z,7.25
2024-05-09T13:01:23.249Z,7.82
2024-05-09T13:03:50.227Z,9.40
2024-05-09T13:06:17.178Z,7.30
2024-05-09T13:08:43.885Z,7.15
2024-05-09T13:11:10.675Z,7.25
2024-05-09T13:13:37.441Z,8.60
2024-05-09T13:16:04.493Z,8.20
2024-05-09T13:18:33.674Z,7.28
2024-05-09T13:21:00.940Z,6.82
2024-05-09T13:23:27.765Z,7.00
2024-05-09T13:25:54.502Z,6.47
2024-05-09T13:28:22.722Z,7.18
2024-05-09T13:30:49.472Z,7.25
2024-05-09T13:33:16.330Z,7.47
2024-05-09T13:35:48.605Z,6.75
2024-05-09T13:38:23.144Z,7.15
2024-05-09T13:44:43.183Z,7.28
2024-05-09T13:51:12.193Z,6.95
2024-05-09T13:53:40.368Z,8.07
2024-05-09T13:56:08.827Z,7.45
2024-05-09T13:58:37.081Z,8.02
2024-05-09T14:01:05.252Z,7.85
2024-05-09T14:03:33.772Z,7.68
2024-05-09T14:06:02.398Z,7.47
2024-05-09T14:08:29.352Z,7.45
2024-05-09T14:10:56.307Z,8.52
2024-05-09T14:13:23.075Z,7.90
2024-05-09T14:15:50.171Z,8.38
2024-05-09T14:18:18.186Z,7.65
2024-05-09T14:20:44.944Z,8.07
2024-05-09T14:23:14.481Z,7.78
2024-05-09T14:25:43.580Z,7.00
2024-05-09T14:28:13.020Z,7.53
2024-05-09T14:30:40.398Z,7.43
2024-05-09T14:33:09.250Z,26.15
2024-05-09T14:35:39.407Z,8.45
2024-05-09T14:38:08.914Z,7.22
2024-05-09T14:40:42.056Z,8.30
2024-05-09T14:43:13.611Z,6.88
2024-05-09T14:45:41.138Z,7.53
2024-05-09T14:48:08.603Z,7.32
2024-05-09T14:50:38.704Z,7.75
2024-05-09T14:53:11.708Z,9.38
2024-05-09T14:55:40.642Z,6.93
2024-05-09T14:58:09.839Z,8.60
2024-05-09T15:00:41.310Z,8.30
2024-05-09T15:03:11.301Z,7.82
2024-05-09T15:05:38.189Z,9.43
2024-05-09T15:08:08.751Z,10.25
2024-05-09T15:10:37.002Z,9.50
2024-05-09T15:13:05.336Z,9.80
2024-05-09T15:15:32.777Z,11.55
2024-05-09T15:18:00.165Z,9.75
2024-05-09T15:20:33.664Z,8.80
2024-05-09T15:23:03.711Z,8.68
2024-05-09T15:25:30.778Z,8.60
2024-05-09T15:27:57.654Z,10.38
2024-05-09T15:30:30.608Z,8.77
2024-05-09T15:33:00.107Z,11.50
2024-05-09T15:36:41.035Z,9.40
2024-05-09T15:39:09.180Z,9.00
2024-05-09T15:42:02.683Z,9.52
2024-05-09T15:44:29.380Z,9.35
2024-05-09T15:46:56.418Z,9.27
2024-05-09T15:49:23.178Z,11.57
2024-05-09T15:51:49.948Z,10.85
2024-05-09T15:54:16.679Z,9.88
2024-05-09T15:56:47.274Z,10.80
2024-05-09T15:59:13.997Z,10.50
2024-05-09T16:01:40.843Z,9.77
2024-05-09T16:04:07.804Z,10.43
2024-05-09T16:07:08.538Z,10.18
2024-05-09T16:09:37.548Z,9.55
2024-05-09T16:12:05.355Z,10.57
2024-05-09T16:14:32.861Z,9.82
2024-05-09T16:17:03.828Z,10.85
2024-05-09T16:19:31.937Z,8.93
2024-05-09T16:22:00.314Z,9.43
2024-05-09T16:25:27.602Z,10.32
2024-05-09T16:28:51.558Z,10.23
2024-05-09T16:31:18.236Z,11.00
2024-05-09T16:33:45.263Z,10.35
2024-05-09T16:36:12.037Z,10.23
2024-05-09T16:38:40.047Z,10.63
2024-05-09T16:41:06.793Z,9.63
2024-05-09T16:43:33.742Z,10.32
2024-05-09T16:46:00.524Z,9.88
2024-05-09T16:48:53.796Z,10.30
2024-05-09T16:51:22.164Z,11.15
2024-05-09T16:53:49.989Z,10.02
2024-05-09T16:56:16.755Z,8.07
2024-05-09T16:58:43.610Z,9.90
2024-05-09T17:01:13.816Z,11.45
2024-05-09T17:03:40.945Z,9.90
2024-05-09T17:06:09.842Z,9.60
2024-05-09T17:08:37.832Z,10.23
2024-05-09T17:11:04.963Z,9.75
2024-05-09T17:13:32.535Z,9.98
2024-05-09T17:18:26.497Z,9.50
2024-05-09T17:20:53.179Z,10.70
2024-05-09T17:23:19.865Z,11.57
2024-05-09T17:25:46.656Z,10.80
2024-05-09T17:28:13.626Z,9.02
2024-05-09T17:34:28.175Z,10.40
2024-05-09T17:36:55.128Z,10.13
2024-05-09T17:39:21.772Z,10.32
2024-05-09T17:41:48.449Z,9.27
2024-05-09T17:44:15.117Z,9.68
2024-05-09T17:46:42.113Z,25.95
2024-05-09T17:52:55.955Z,10.75
2024-05-09T17:55:22.750Z,11.95
2024-05-09T17:57:49.977Z,10.48
2024-05-09T18:00:24.670Z,8.75
2024-05-09T18:03:00.722Z,10.45
2024-05-09T18:05:29.057Z,9.80
2024-05-09T18:07:57.106Z,8.80
2024-05-09T18:10:30.101Z,7.35
2024-05-09T18:16:49.901Z,7.60
2024-05-09T18:19:16.697Z,7.38
2024-05-09T18:22:23.748Z,6.82
2024-05-09T18:24:50.574Z,9.27
2024-05-09T18:27:19.085Z,7.03
2024-05-09T18:29:45.703Z,8.20
2024-05-09T18:32:12.368Z,14.88
2024-05-09T18:34:39.079Z,8.63
2024-05-09T18:37:05.803Z,7.53
2024-05-09T18:39:32.665Z,7.68
2024-05-09T18:42:01.158Z,7.18
2024-05-09T18:44:27.941Z,7.43
2024-05-09T18:46:55.043Z,7.00
2024-05-09T18:49:21.873Z,7.13
2024-05-09T18:51:48.743Z,14.18
2024-05-09T18:54:40.754Z,7.65
2024-05-09T18:57:07.502Z,7.30
2024-05-09T18:59:34.212Z,7.75
2024-05-09T19:02:00.993Z,6.90
2024-05-09T19:04:27.833Z,7.15
2024-05-09T19:07:04.377Z,7.72
2024-05-09T19:09:31.106Z,7.82
2024-05-09T19:12:00.577Z,7.40
2024-05-09T19:14:27.286Z,7.13
2024-05-09T19:20:36.256Z,6.85
2024-05-09T19:23:04.824Z,6.85
2024-05-09T19:25:32.170Z,7.38
2024-05-09T19:27:59.186Z,6.85
2024-05-09T19:30:34.992Z,7.65
2024-05-09T19:33:07.012Z,6.57
2024-05-09T19:35:33.798Z,6.15
2024-05-09T19:38:00.710Z,5.57
2024-05-09T19:40:31.818Z,6.68
2024-05-09T19:43:01.782Z,6.53
2024-05-09T19:45:29.190Z,6.53
2024-05-09T19:47:56.384Z,6.70
2024-05-09T19:50:31.696Z,6.40
2024-05-09T19:53:06.021Z,7.22
2024-05-09T19:55:33.240Z,7.82
2024-05-09T19:58:01.656Z,7.88
2024-05-09T20:00:35.687Z,7.15
2024-05-09T20:03:04.247Z,7.72
2024-05-09T20:05:31.458Z,9.00
2024-05-09T20:11:46.025Z,8.02
2024-05-09T20:14:12.782Z,7.60
2024-05-09T20:16:39.421Z,7.38
2024-05-09T20:19:06.228Z,7.85
2024-05-09T20:21:33.001Z,8.02
2024-05-09T20:23:59.707Z,7.85
2024-05-09T20:26:29.860Z,7.78
2024-05-09T20:28:57.587Z,7.13
2024-05-09T20:31:24.601Z,7.38
2024-05-09T20:33:51.445Z,6.97
2024-05-09T20:36:18.175Z,8.05
2024-05-09T20:38:53.802Z,8.15
2024-05-09T20:41:20.448Z,8.10
2024-05-09T20:43:47.103Z,7.80
2024-05-09T20:46:16.932Z,7.88
2024-05-09T20:48:43.780Z,16.02
2024-05-09T20:51:10.595Z,11.63
2024-05-09T20:53:37.205Z,9.43
2024-05-09T20:56:04.050Z,7.72
2024-05-09T21:02:18.103Z,8.43
2024-05-09T21:04:45.039Z,7.50
2024-05-09T21:07:11.969Z,7.68
2024-05-09T21:09:38.755Z,7.60
2024-05-09T21:12:05.545Z,7.88
2024-05-09T21:18:13.679Z,7.97
2024-05-09T21:20:40.427Z,7.45
2024-05-09T21:23:07.207Z,7.32
2024-05-09T21:25:49.378Z,8.73
2024-05-09T21:28:16.107Z,9.65
2024-05-09T21:34:24.088Z,9.30
2024-05-09T21:36:50.831Z,9.40
2024-05-09T21:39:17.542Z,8.15
2024-05-09T21:41:44.178Z,9.77
2024-05-09T21:44:10.901Z,8.32
2024-05-09T21:46:37.706Z,8.57
2024-05-09T21:49:04.476Z,9.25
2024-05-09T21:51:31.922Z,9.30
2024-05-09T21:57:45.955Z,8.45
2024-05-09T22:00:28.206Z,9.25
2024-05-09T22:03:21.651Z,9.10
2024-05-09T22:05:48.339Z,9.27
2024-05-09T22:08:15.057Z,9.38
2024-05-09T22:10:41.948Z,8.75
2024-05-09T22:13:43.085Z,9.50
2024-05-09T22:19:50.440Z,10.75
2024-05-09T22:22:17.294Z,9.40
2024-05-09T22:24:44.080Z,9.07
2024-05-09T22:27:11.928Z,9.00
2024-05-09T22:29:39.012Z,10.82
2024-05-09T22:32:06.014Z,10.30
2024-05-09T22:34:32.719Z,9.60
2024-05-09T22:36:59.557Z,10.50
2024-05-09T22:39:26.360Z,10.73
2024-05-09T22:41:53.976Z,10.10
2024-05-09T22:44:20.619Z,9.90
2024-05-09T22:46:47.243Z,9.40
2024-05-09T22:49:13.980Z,10.07
2024-05-09T22:51:40.811Z,9.48
2024-05-09T22:54:07.805Z,9.60
2024-05-09T22:56:34.431Z,9.07
2024-05-09T22:59:01.332Z,9.32
2024-05-09T23:01:28.157Z,9.45
2024-05-09T23:03:54.998Z,9.90
2024-05-09T23:06:21.927Z,9.27
2024-05-09T23:08:48.606Z,9.43
2024-05-09T23:11:15.442Z,7.95
2024-05-09T23:13:42.168Z,9.77
2024-05-09T23:16:17.814Z,8.25
2024-05-09T23:18:44.668Z,9.75
2024-05-09T23:21:11.403Z,9.52
2024-05-09T23:23:38.023Z,9.57
2024-05-09T23:26:05.329Z,8.82
2024-05-09T23:28:32.142Z,10.05
2024-05-09T23:30:58.829Z,9.18
2024-05-09T23:33:25.918Z,8.98
2024-05-09T23:35:52.549Z,8.75
2024-05-09T23:38:22.481Z,8.68
2024-05-09T23:40:51.046Z,8.75
2024-05-09T23:43:37.506Z,9.32
2024-05-09T23:46:04.305Z,9.00
2024-05-09T23:48:31.025Z,9.13
2024-05-09T23:50:57.698Z,8.70
2024-05-09T23:57:11.795Z,8.52
